![]() |
EMODnet Physics ERDDAP
Easier access to scientific data |
log in|
Brought to you by EMODnet Physics |
| Dataset Title: | NDBC - Collection of dew point temperature (DEWT) TimeSeries - IN SITU MultiPointTimeSeriesObservation
|
| Institution: | NDBC (Dataset ID: TS_DEWT_NDBC) |
| Information: | Summary
| License
| FGDC
| ISO 19115
| Metadata
| Background
| Subset
| Data Access Form
| Make a graph
|
| Name | Last modified | Size | Description | |
|---|---|---|---|---|
| Parent Directory | - | - | ||
| 42012_TS_DEWT_011984.nc | 26-Oct-2024 14:52 | 1459909 | ||
| 42012_TS_DEWT_012010.nc | 26-Oct-2024 14:52 | 1164874 | ||
| 42012_TS_DEWT_012011.nc | 26-Oct-2024 14:52 | 1459217 | ||
| 42012_TS_DEWT_012012.nc | 26-Oct-2024 14:52 | 1160869 | ||
| 42012_TS_DEWT_012013.nc | 26-Oct-2024 14:52 | 439266 | ||
| 42012_TS_DEWT_012014.nc | 26-Oct-2024 14:52 | 449799 | ||
| 42012_TS_DEWT_012015.nc | 26-Oct-2024 14:52 | 511170 | ||
| 42012_TS_DEWT_012016.nc | 26-Oct-2024 14:53 | 447565 | ||
| 42012_TS_DEWT_012017.nc | 26-Oct-2024 14:53 | 4147316 | ||
| 42012_TS_DEWT_012019.nc | 26-Oct-2024 14:53 | 450191 | ||
| 42012_TS_DEWT_012020.nc | 26-Oct-2024 14:53 | 3641353 | ||
| 42012_TS_DEWT_012021.nc | 26-Oct-2024 14:53 | 449081 | ||
| 42012_TS_DEWT_012022.nc | 26-Oct-2024 14:53 | 450187 | ||
| 42012_TS_DEWT_012023.nc | 26-Oct-2024 14:53 | 450162 | ||
| 42012_TS_DEWT_012024.nc | 26-Oct-2024 14:53 | 450876 | ||
| 42012_TS_DEWT_012025.nc | 07-Feb-2025 10:28 | 450125 | ||
| 42012_TS_DEWT_012026.nc | 02-Feb-2026 18:26 | 448796 | ||
| 42012_TS_DEWT_022010.nc | 26-Oct-2024 14:53 | 448520 | ||
| 42012_TS_DEWT_022011.nc | 26-Oct-2024 14:53 | 449227 | ||
| 42012_TS_DEWT_022012.nc | 26-Oct-2024 14:53 | 448466 | ||
| 42012_TS_DEWT_022013.nc | 26-Oct-2024 14:53 | 448570 | ||
| 42012_TS_DEWT_022014.nc | 26-Oct-2024 14:53 | 500311 | ||
| 42012_TS_DEWT_022015.nc | 26-Oct-2024 14:53 | 441472 | ||
| 42012_TS_DEWT_022016.nc | 26-Oct-2024 14:53 | 449992 | ||
| 42012_TS_DEWT_022017.nc | 26-Oct-2024 14:53 | 449031 | ||
| 42012_TS_DEWT_022019.nc | 26-Oct-2024 14:53 | 3432893 | ||
| 42012_TS_DEWT_022020.nc | 26-Oct-2024 14:54 | 2711673 | ||
| 42012_TS_DEWT_022021.nc | 26-Oct-2024 14:54 | 419971 | ||
| 42012_TS_DEWT_022022.nc | 26-Oct-2024 14:54 | 3015028 | ||
| 42012_TS_DEWT_022023.nc | 26-Oct-2024 14:54 | 4064378 | ||
| 42012_TS_DEWT_022024.nc | 16-Sep-2024 16:51 | 3417206 | ||
| 42012_TS_DEWT_022025.nc | 01-Mar-2025 07:47 | 3233251 | ||
| 42012_TS_DEWT_022026.nc | 01-Mar-2026 08:14 | 4133711 | ||
| 42012_TS_DEWT_032010.nc | 26-Oct-2024 14:54 | 2705379 | ||
| 42012_TS_DEWT_032011.nc | 26-Oct-2024 14:54 | 3227420 | ||
| 42012_TS_DEWT_032012.nc | 26-Oct-2024 14:54 | 4893034 | ||
| 42012_TS_DEWT_032013.nc | 26-Oct-2024 14:54 | 3828578 | ||
| 42012_TS_DEWT_032014.nc | 26-Oct-2024 14:54 | 451361 | ||
| 42012_TS_DEWT_032015.nc | 26-Oct-2024 14:54 | 4585717 | ||
| 42012_TS_DEWT_032016.nc | 26-Oct-2024 14:54 | 449710 | ||
| 42012_TS_DEWT_032017.nc | 26-Oct-2024 14:54 | 4086378 | ||
| 42012_TS_DEWT_032018.nc | 26-Oct-2024 14:54 | 448673 | ||
| 42012_TS_DEWT_032019.nc | 26-Oct-2024 14:54 | 431301 | ||
| 42012_TS_DEWT_032020.nc | 26-Oct-2024 14:54 | 4240998 | ||
| 42012_TS_DEWT_032021.nc | 26-Oct-2024 14:54 | 448240 | ||
| 42012_TS_DEWT_032022.nc | 26-Oct-2024 14:54 | 4728410 | ||
| 42012_TS_DEWT_032023.nc | 26-Oct-2024 14:54 | 450830 | ||
| 42012_TS_DEWT_032025.nc | 02-Apr-2025 05:57 | 2333493 | ||
| 42012_TS_DEWT_032026.nc | 21-Mar-2026 11:40 | 4720259 | ||
| 42012_TS_DEWT_042009.nc | 26-Oct-2024 14:54 | 418875 | ||
| 42012_TS_DEWT_042010.nc | 26-Oct-2024 14:54 | 429057 | ||
| 42012_TS_DEWT_042011.nc | 26-Oct-2024 14:54 | 429406 | ||
| 42012_TS_DEWT_042012.nc | 26-Oct-2024 14:55 | 430025 | ||
| 42012_TS_DEWT_042013.nc | 26-Oct-2024 14:55 | 430174 | ||
| 42012_TS_DEWT_042014.nc | 26-Oct-2024 14:55 | 424874 | ||
| 42012_TS_DEWT_042015.nc | 26-Oct-2024 14:55 | 430362 | ||
| 42012_TS_DEWT_042016.nc | 26-Oct-2024 14:55 | 419276 | ||
| 42012_TS_DEWT_042017.nc | 26-Oct-2024 14:55 | 428508 | ||
| 42012_TS_DEWT_042018.nc | 26-Oct-2024 14:55 | 435283 | ||
| 42012_TS_DEWT_042019.nc | 26-Oct-2024 14:55 | 440169 | ||
| 42012_TS_DEWT_042020.nc | 26-Oct-2024 14:55 | 440129 | ||
| 42012_TS_DEWT_042021.nc | 26-Oct-2024 14:55 | 588158 | ||
| 42012_TS_DEWT_042022.nc | 26-Oct-2024 14:55 | 430183 | ||
| 42012_TS_DEWT_042023.nc | 26-Oct-2024 14:55 | 440153 | ||
| 42012_TS_DEWT_042025.nc | 01-May-2025 04:15 | 429489 | ||
| 42012_TS_DEWT_052009.nc | 26-Oct-2024 14:55 | 588174 | ||
| 42012_TS_DEWT_052010.nc | 26-Oct-2024 14:55 | 429845 | ||
| 42012_TS_DEWT_052011.nc | 26-Oct-2024 14:55 | 587901 | ||
| 42012_TS_DEWT_052012.nc | 26-Oct-2024 14:55 | 429858 | ||
| 42012_TS_DEWT_052013.nc | 26-Oct-2024 14:55 | 429487 | ||
| 42012_TS_DEWT_052014.nc | 26-Oct-2024 14:55 | 429495 | ||
| 42012_TS_DEWT_052015.nc | 26-Oct-2024 14:55 | 429537 | ||
| 42012_TS_DEWT_052016.nc | 26-Oct-2024 14:55 | 429834 | ||
| 42012_TS_DEWT_052017.nc | 26-Oct-2024 14:55 | 438764 | ||
| 42012_TS_DEWT_052018.nc | 26-Oct-2024 14:55 | 427359 | ||
| 42012_TS_DEWT_052019.nc | 26-Oct-2024 14:56 | 437801 | ||
| 42012_TS_DEWT_052020.nc | 26-Oct-2024 14:56 | 418957 | ||
| 42012_TS_DEWT_052021.nc | 26-Oct-2024 14:56 | 587137 | ||
| 42012_TS_DEWT_052022.nc | 26-Oct-2024 14:56 | 587181 | ||
| 42012_TS_DEWT_052024.nc | 04-Jan-2025 06:01 | 438193 | ||
| 42012_TS_DEWT_052025.nc | 01-Jun-2025 04:26 | 587224 | ||
| 42012_TS_DEWT_062009.nc | 26-Oct-2024 14:56 | 439913 | ||
| 42012_TS_DEWT_062010.nc | 26-Oct-2024 14:56 | 587009 | ||
| 42012_TS_DEWT_062011.nc | 26-Oct-2024 14:56 | 587096 | ||
| 42012_TS_DEWT_062012.nc | 26-Oct-2024 14:56 | 587171 | ||
| 42012_TS_DEWT_062013.nc | 26-Oct-2024 14:56 | 587186 | ||
| 42012_TS_DEWT_062014.nc | 26-Oct-2024 14:56 | 587198 | ||
| 42012_TS_DEWT_062015.nc | 26-Oct-2024 14:56 | 433753 | ||
| 42012_TS_DEWT_062016.nc | 26-Oct-2024 14:56 | 438694 | ||
| 42012_TS_DEWT_062017.nc | 26-Oct-2024 14:56 | 438650 | ||
| 42012_TS_DEWT_062018.nc | 26-Oct-2024 14:56 | 438996 | ||
| 42012_TS_DEWT_062019.nc | 26-Oct-2024 14:56 | 438580 | ||
| 42012_TS_DEWT_062020.nc | 26-Oct-2024 14:56 | 438153 | ||
| 42012_TS_DEWT_062021.nc | 26-Oct-2024 14:56 | 438820 | ||
| 42012_TS_DEWT_062022.nc | 26-Oct-2024 14:56 | 439421 | ||
| 42012_TS_DEWT_062023.nc | 26-Oct-2024 14:56 | 438810 | ||
| 42012_TS_DEWT_062025.nc | 01-Jul-2025 04:30 | 438619 | ||
| 42012_TS_DEWT_072009.nc | 26-Oct-2024 14:56 | 438862 | ||
| 42012_TS_DEWT_072010.nc | 26-Oct-2024 14:56 | 440245 | ||
| 42012_TS_DEWT_072011.nc | 26-Oct-2024 14:56 | 440043 | ||
| 42012_TS_DEWT_072012.nc | 26-Oct-2024 14:56 | 587206 | ||
| 42012_TS_DEWT_072013.nc | 26-Oct-2024 14:57 | 439790 | ||
| 42012_TS_DEWT_072014.nc | 26-Oct-2024 14:57 | 440405 | ||
| 42012_TS_DEWT_072015.nc | 26-Oct-2024 14:57 | 586976 | ||
| 42012_TS_DEWT_072016.nc | 26-Oct-2024 14:57 | 586950 | ||
| 42012_TS_DEWT_072017.nc | 26-Oct-2024 14:57 | 587135 | ||
| 42012_TS_DEWT_072018.nc | 26-Oct-2024 14:57 | 435018 | ||
| 42012_TS_DEWT_072019.nc | 26-Oct-2024 14:57 | 423146 | ||
| 42012_TS_DEWT_072020.nc | 26-Oct-2024 14:57 | 587331 | ||
| 42012_TS_DEWT_072021.nc | 26-Oct-2024 14:57 | 440040 | ||
| 42012_TS_DEWT_072022.nc | 26-Oct-2024 14:57 | 434954 | ||
| 42012_TS_DEWT_072023.nc | 26-Oct-2024 14:57 | 439896 | ||
| 42012_TS_DEWT_072025.nc | 01-Aug-2025 04:36 | 439843 | ||
| 42012_TS_DEWT_081983.nc | 26-Oct-2024 14:57 | 440131 | ||
| 42012_TS_DEWT_082009.nc | 26-Oct-2024 14:57 | 439725 | ||
| 42012_TS_DEWT_082010.nc | 26-Oct-2024 14:57 | 439904 | ||
| 42012_TS_DEWT_082011.nc | 26-Oct-2024 14:57 | 440116 | ||
| 42012_TS_DEWT_082012.nc | 26-Oct-2024 14:57 | 439969 | ||
| 42012_TS_DEWT_082013.nc | 26-Oct-2024 14:57 | 432549 | ||
| 42012_TS_DEWT_082014.nc | 26-Oct-2024 14:57 | 440185 | ||
| 42012_TS_DEWT_082015.nc | 26-Oct-2024 14:57 | 586981 | ||
| 42012_TS_DEWT_082016.nc | 26-Oct-2024 14:57 | 587143 | ||
| 42012_TS_DEWT_082017.nc | 26-Oct-2024 14:57 | 440206 | ||
| 42012_TS_DEWT_082018.nc | 26-Oct-2024 14:57 | 587003 | ||
| 42012_TS_DEWT_082019.nc | 26-Oct-2024 14:57 | 421856 | ||
| 42012_TS_DEWT_082020.nc | 26-Oct-2024 14:58 | 587261 | ||
| 42012_TS_DEWT_082021.nc | 26-Oct-2024 14:58 | 587107 | ||
| 42012_TS_DEWT_082022.nc | 26-Oct-2024 14:58 | 587094 | ||
| 42012_TS_DEWT_082023.nc | 26-Oct-2024 14:58 | 587049 | ||
| 42012_TS_DEWT_082025.nc | 01-Sep-2025 04:36 | 587308 | ||
| 42012_TS_DEWT_091983.nc | 26-Oct-2024 14:58 | 439905 | ||
| 42012_TS_DEWT_092009.nc | 26-Oct-2024 14:58 | 440084 | ||
| 42012_TS_DEWT_092010.nc | 26-Oct-2024 14:58 | 439135 | ||
| 42012_TS_DEWT_092011.nc | 26-Oct-2024 14:58 | 424228 | ||
| 42012_TS_DEWT_092012.nc | 26-Oct-2024 14:58 | 439682 | ||
| 42012_TS_DEWT_092013.nc | 26-Oct-2024 14:58 | 439992 | ||
| 42012_TS_DEWT_092014.nc | 26-Oct-2024 14:58 | 440101 | ||
| 42012_TS_DEWT_092015.nc | 26-Oct-2024 14:58 | 440061 | ||
| 42012_TS_DEWT_092016.nc | 26-Oct-2024 14:58 | 440118 | ||
| 42012_TS_DEWT_092017.nc | 26-Oct-2024 14:58 | 440215 | ||
| 42012_TS_DEWT_092018.nc | 26-Oct-2024 14:58 | 587018 | ||
| 42012_TS_DEWT_092019.nc | 26-Oct-2024 14:58 | 587249 | ||
| 42012_TS_DEWT_092020.nc | 26-Oct-2024 14:58 | 439809 | ||
| 42012_TS_DEWT_092021.nc | 26-Oct-2024 14:58 | 429038 | ||
| 42012_TS_DEWT_092022.nc | 26-Oct-2024 14:58 | 587134 | ||
| 42012_TS_DEWT_092023.nc | 26-Oct-2024 14:58 | 587182 | ||
| 42012_TS_DEWT_092025.nc | 01-Oct-2025 04:14 | 587111 | ||
| 42012_TS_DEWT_101983.nc | 26-Oct-2024 14:58 | 587223 | ||
| 42012_TS_DEWT_102009.nc | 26-Oct-2024 14:58 | 587285 | ||
| 42012_TS_DEWT_102010.nc | 26-Oct-2024 14:59 | 587243 | ||
| 42012_TS_DEWT_102011.nc | 26-Oct-2024 14:59 | 587127 | ||
| 42012_TS_DEWT_102012.nc | 26-Oct-2024 14:59 | 430946 | ||
| 42012_TS_DEWT_102013.nc | 26-Oct-2024 14:59 | 586854 | ||
| 42012_TS_DEWT_102014.nc | 26-Oct-2024 14:59 | 439730 | ||
| 42012_TS_DEWT_102015.nc | 26-Oct-2024 14:59 | 437916 | ||
| 42012_TS_DEWT_102016.nc | 26-Oct-2024 14:59 | 437608 | ||
| 42012_TS_DEWT_102017.nc | 26-Oct-2024 14:59 | 587135 | ||
| 42012_TS_DEWT_102018.nc | 26-Oct-2024 14:59 | 587114 | ||
| 42012_TS_DEWT_102019.nc | 26-Oct-2024 14:59 | 587185 | ||
| 42012_TS_DEWT_102020.nc | 26-Oct-2024 14:59 | 587288 | ||
| 42012_TS_DEWT_102021.nc | 26-Oct-2024 14:59 | 587254 | ||
| 42012_TS_DEWT_102022.nc | 26-Oct-2024 14:59 | 440001 | ||
| 42012_TS_DEWT_102023.nc | 26-Oct-2024 14:59 | 440074 | ||
| 42012_TS_DEWT_102025.nc | 01-Nov-2025 06:37 | 440008 | ||
| 42012_TS_DEWT_111983.nc | 26-Oct-2024 14:59 | 437604 | ||
| 42012_TS_DEWT_112009.nc | 26-Oct-2024 14:59 | 438399 | ||
| 42012_TS_DEWT_112010.nc | 26-Oct-2024 14:59 | 440108 | ||
| 42012_TS_DEWT_112011.nc | 26-Oct-2024 14:59 | 440171 | ||
| 42012_TS_DEWT_112012.nc | 26-Oct-2024 14:59 | 440088 | ||
| 42012_TS_DEWT_112013.nc | 26-Oct-2024 14:59 | 439977 | ||
| 42012_TS_DEWT_112014.nc | 26-Oct-2024 14:59 | 440077 | ||
| 42012_TS_DEWT_112015.nc | 26-Oct-2024 14:59 | 440210 | ||
| 42012_TS_DEWT_112016.nc | 26-Oct-2024 14:59 | 587229 | ||
| 42012_TS_DEWT_112018.nc | 26-Oct-2024 14:59 | 587211 | ||
| 42012_TS_DEWT_112019.nc | 26-Oct-2024 14:59 | 438917 | ||
| 42012_TS_DEWT_112020.nc | 26-Oct-2024 14:59 | 437742 | ||
| 42012_TS_DEWT_112021.nc | 26-Oct-2024 14:59 | 439644 | ||
| 42012_TS_DEWT_112022.nc | 26-Oct-2024 15:00 | 587205 | ||
| 42012_TS_DEWT_112023.nc | 26-Oct-2024 15:00 | 587274 | ||
| 42012_TS_DEWT_112024.nc | 17-Jan-2025 14:53 | 587064 | ||
| 42012_TS_DEWT_112025.nc | 01-Dec-2025 07:32 | 586976 | ||
| 42012_TS_DEWT_121983.nc | 26-Oct-2024 15:00 | 587317 | ||
| 42012_TS_DEWT_122009.nc | 26-Oct-2024 15:00 | 438285 | ||
| 42012_TS_DEWT_122010.nc | 26-Oct-2024 15:00 | 440040 | ||
| 42012_TS_DEWT_122011.nc | 26-Oct-2024 15:00 | 439610 | ||
| 42012_TS_DEWT_122012.nc | 26-Oct-2024 15:00 | 439638 | ||
| 42012_TS_DEWT_122013.nc | 26-Oct-2024 15:00 | 439816 | ||
| 42012_TS_DEWT_122014.nc | 26-Oct-2024 15:00 | 440079 | ||
| 42012_TS_DEWT_122015.nc | 26-Oct-2024 15:00 | 439968 | ||
| 42012_TS_DEWT_122016.nc | 26-Oct-2024 15:00 | 439196 | ||
| 42012_TS_DEWT_122018.nc | 26-Oct-2024 15:00 | 440049 | ||
| 42012_TS_DEWT_122019.nc | 26-Oct-2024 15:00 | 424762 | ||
| 42012_TS_DEWT_122020.nc | 26-Oct-2024 15:00 | 440213 | ||
| 42012_TS_DEWT_122021.nc | 26-Oct-2024 15:00 | 440177 | ||
| 42012_TS_DEWT_122022.nc | 26-Oct-2024 15:00 | 587189 | ||
| 42012_TS_DEWT_122023.nc | 26-Oct-2024 15:00 | 437381 | ||
| 42012_TS_DEWT_122024.nc | 22-Jan-2025 16:33 | 587191 | ||
| 42012_TS_DEWT_122025.nc | 01-Jan-2026 07:25 | 440038 | ||